Time;durP1;ratioP1;P1;durP2;ratioP2;P2;SDS_P1;SDS_P2;PMS_P1;PMS_P2;Temp;Humidity;BMP_temperature;BMP_pressure;BME280_temperature;BME280_humidity;BME280_pressure;Samples;Min_cycle;Max_cycle;Signal;HPM_P1;HPM_P2
2021/06/23 00:01:22;;;;;;;7.53;4.73;;;19.40;94.00;;;;;;5069795;28;20189;-76
2021/06/23 00:03:47;;;;;;;6.07;4.70;;;19.40;94.10;;;;;;5070760;28;20208;-75
2021/06/23 00:06:14;;;;;;;6.37;3.97;;;19.40;94.20;;;;;;5070507;28;20518;-76
2021/06/23 00:08:40;;;;;;;5.87;4.77;;;19.50;94.00;;;;;;5070999;28;20887;-75
2021/06/23 00:11:06;;;;;;;6.73;4.10;;;19.60;93.90;;;;;;5062462;28;20436;-77
2021/06/23 00:13:34;;;;;;;4.60;3.87;;;19.70;93.60;;;;;;5069526;28;20427;-76
2021/06/23 00:16:06;;;;;;;5.40;4.10;;;19.70;93.50;;;;;;5071273;28;20465;-76
2021/06/23 00:18:32;;;;;;;4.77;3.80;;;19.80;93.90;;;;;;5069604;28;20418;-77
2021/06/23 00:20:58;;;;;;;10.07;4.70;;;19.90;93.70;;;;;;5066028;28;20433;-76
2021/06/23 00:23:24;;;;;;;8.97;5.00;;;19.90;94.10;;;;;;5070186;28;20978;-76
2021/06/23 00:25:50;;;;;;;6.20;5.00;;;19.90;94.10;;;;;;5070675;28;20204;-76
2021/06/23 00:28:16;;;;;;;9.47;5.30;;;19.80;94.50;;;;;;5070193;28;20187;-76
2021/06/23 00:30:42;;;;;;;8.40;5.63;;;19.80;94.30;;;;;;5072715;28;20411;-76
2021/06/23 00:33:15;;;;;;;7.17;5.40;;;19.70;94.80;;;;;;5070703;28;20187;-75
2021/06/23 00:35:41;;;;;;;7.30;5.00;;;19.70;95.10;;;;;;5061174;28;20518;-76
2021/06/23 00:38:07;;;;;;;8.63;5.30;;;19.60;95.10;;;;;;5065675;28;20514;-75
2021/06/23 00:40:33;;;;;;;10.37;6.40;;;19.60;95.30;;;;;;5067330;28;20905;-75
2021/06/23 00:42:59;;;;;;;12.73;6.30;;;19.60;95.20;;;;;;5071428;28;20178;-75
2021/06/23 00:45:26;;;;;;;9.67;5.50;;;19.60;95.50;;;;;;5071908;28;20978;-75
2021/06/23 00:47:53;;;;;;;8.17;5.73;;;19.70;95.60;;;;;;5073725;28;20224;-75
2021/06/23 00:50:20;;;;;;;7.30;5.00;;;19.80;95.70;;;;;;5077937;28;20421;-77
2021/06/23 00:52:47;;;;;;;11.33;6.20;;;19.60;94.80;;;;;;5072447;28;20425;-77
2021/06/23 00:55:23;;;;;;;9.00;5.77;;;19.50;95.20;;;;;;5074870;28;20463;-77
2021/06/23 00:57:55;;;;;;;7.27;5.20;;;19.40;95.40;;;;;;5082397;28;20402;-77
2021/06/23 01:00:26;;;;;;;7.13;5.60;;;19.40;96.20;;;;;;5081933;28;20414;-76
2021/06/23 01:02:53;;;;;;;8.53;5.63;;;19.40;96.80;;;;;;5080684;28;20423;-76
2021/06/23 01:05:19;;;;;;;10.60;6.03;;;19.40;96.90;;;;;;5075072;28;20469;-77
2021/06/23 01:07:47;;;;;;;9.87;6.77;;;19.40;96.90;;;;;;5073485;28;20550;-75
2021/06/23 01:10:13;;;;;;;7.67;4.97;;;19.30;96.30;;;;;;5072499;28;20513;-75
2021/06/23 01:12:46;;;;;;;7.97;5.67;;;19.20;96.20;;;;;;5076131;28;20418;-75
2021/06/23 01:15:14;;;;;;;9.10;5.67;;;19.10;96.40;;;;;;5077249;28;20447;-76
2021/06/23 01:17:39;;;;;;;9.00;5.70;;;19.00;96.80;;;;;;5074479;28;20790;-75
2021/06/23 01:20:09;;;;;;;9.57;6.37;;;19.00;97.20;;;;;;5087549;28;20430;-76
2021/06/23 01:22:38;;;;;;;9.07;6.13;;;19.00;97.40;;;;;;5082096;28;20189;-75
2021/06/23 01:25:06;;;;;;;7.47;5.53;;;19.10;97.50;;;;;;5075026;28;20957;-76
2021/06/23 01:27:31;;;;;;;9.73;6.37;;;19.20;97.70;;;;;;5073731;28;20479;-75
2021/06/23 01:29:57;;;;;;;7.90;6.17;;;19.20;97.60;;;;;;5068855;28;20426;-76
2021/06/23 01:32:23;;;;;;;7.83;5.80;;;19.20;97.50;;;;;;5072698;28;20184;-75
2021/06/23 01:34:49;;;;;;;8.93;6.30;;;19.30;97.40;;;;;;5072845;28;20231;-75
2021/06/23 01:37:15;;;;;;;9.40;6.33;;;19.30;97.20;;;;;;5071081;28;20456;-76
2021/06/23 01:39:40;;;;;;;13.50;6.47;;;19.30;97.10;;;;;;5073064;28;20252;-76
2021/06/23 01:42:07;;;;;;;15.03;5.60;;;19.20;97.10;;;;;;5070780;28;20203;-76
2021/06/23 01:44:32;;;;;;;7.10;4.80;;;19.20;97.00;;;;;;5071713;28;20211;-76
2021/06/23 01:47:01;;;;;;;10.83;6.50;;;19.20;97.10;;;;;;5070205;28;20797;-75
2021/06/23 01:49:27;;;;;;;8.30;5.60;;;19.20;97.20;;;;;;5072929;28;20178;-74
2021/06/23 01:51:53;;;;;;;8.00;5.70;;;19.10;97.40;;;;;;5069684;28;20967;-75
2021/06/23 01:54:19;;;;;;;8.27;6.20;;;19.10;97.40;;;;;;5075343;28;20185;-75
2021/06/23 01:56:46;;;;;;;9.20;6.10;;;18.90;97.40;;;;;;5074632;28;20838;-75
2021/06/23 01:59:12;;;;;;;10.70;7.00;;;18.90;97.80;;;;;;5074882;28;20483;-76
2021/06/23 02:02:05;;;;;;;8.33;5.57;;;18.90;98.00;;;;;;5071976;28;20553;-76
2021/06/23 02:04:43;;;;;;;8.50;5.70;;;18.90;98.30;;;;;;5075370;28;20466;-75
2021/06/23 02:07:14;;;;;;;10.87;6.60;;;18.80;98.40;;;;;;5071696;28;20433;-75
2021/06/23 02:10:31;;;;;;;9.30;6.33;;;18.80;98.10;;;;;;5074481;28;20414;-76
2021/06/23 02:13:11;;;;;;;8.17;5.93;;;18.60;98.10;;;;;;5050187;28;20432;-77
2021/06/23 02:15:38;;;;;;;8.57;5.60;;;18.60;98.20;;;;;;5050567;28;21071;-76
2021/06/23 02:18:06;;;;;;;11.90;5.93;;;18.60;98.60;;;;;;5051510;28;20435;-76
2021/06/23 02:20:34;;;;;;;7.53;5.30;;;18.60;98.70;;;;;;5055706;28;20437;-76
2021/06/23 02:23:04;;;;;;;7.37;5.13;;;18.50;98.40;;;;;;5066047;28;21024;-76
2021/06/23 02:25:30;;;;;;;7.83;4.80;;;18.50;98.50;;;;;;5037719;28;20477;-76
2021/06/23 02:27:56;;;;;;;8.07;5.50;;;18.40;98.30;;;;;;5050495;28;20424;-76
2021/06/23 02:30:21;;;;;;;8.90;4.07;;;18.20;98.40;;;;;;5050121;28;20926;-76
2021/06/23 02:32:47;;;;;;;7.70;4.80;;;18.20;98.50;;;;;;5049751;28;20193;-76
2021/06/23 02:35:13;;;;;;;5.97;4.20;;;18.20;98.90;;;;;;5050181;28;20225;-77
2021/06/23 02:37:39;;;;;;;5.67;3.93;;;18.20;99.00;;;;;;5046714;28;20473;-75
2021/06/23 02:40:07;;;;;;;8.50;3.70;;;18.20;98.80;;;;;;5035107;28;20569;-75
2021/06/23 02:42:34;;;;;;;5.93;4.17;;;18.30;98.70;;;;;;5054309;28;20428;-75
2021/06/23 02:45:00;;;;;;;4.80;3.87;;;18.30;98.50;;;;;;5055469;28;20466;-76
2021/06/23 02:47:26;;;;;;;6.70;3.57;;;18.20;98.30;;;;;;5057914;28;20437;-74
2021/06/23 02:49:52;;;;;;;4.47;3.43;;;18.20;98.10;;;;;;5075037;28;20195;-76
2021/06/23 02:52:18;;;;;;;5.80;3.90;;;18.10;97.40;;;;;;5074325;28;20244;-76
2021/06/23 02:54:45;;;;;;;5.30;3.10;;;18.10;97.10;;;;;;5074915;28;20475;-75
2021/06/23 02:57:11;;;;;;;8.03;4.13;;;18.10;97.30;;;;;;5072932;28;20952;-75
2021/06/23 02:59:37;;;;;;;5.43;4.10;;;18.10;97.30;;;;;;5074749;28;20486;-76
2021/06/23 03:02:04;;;;;;;6.47;3.60;;;18.10;97.40;;;;;;5073508;28;20211;-77
2021/06/23 03:04:32;;;;;;;7.50;3.90;;;18.10;97.50;;;;;;5072877;28;20199;-75
2021/06/23 03:07:09;;;;;;;6.10;3.40;;;18.10;97.70;;;;;;5076438;28;20938;-75
2021/06/23 03:09:35;;;;;;;3.87;3.00;;;18.10;97.80;;;;;;5074313;28;20884;-75
2021/06/23 03:12:00;;;;;;;4.27;3.20;;;18.10;97.60;;;;;;5070412;28;20429;-75
2021/06/23 03:14:26;;;;;;;8.27;3.40;;;18.10;97.60;;;;;;5075778;28;20258;-75
2021/06/23 03:16:52;;;;;;;5.23;3.50;;;18.10;97.60;;;;;;5069805;28;20718;-75
2021/06/23 03:19:18;;;;;;;5.90;3.73;;;18.10;97.70;;;;;;5076597;28;20187;-74
2021/06/23 03:21:44;;;;;;;6.10;3.50;;;18.10;97.80;;;;;;5076015;28;20619;-75
2021/06/23 03:24:10;;;;;;;6.50;3.87;;;18.10;97.90;;;;;;5069603;28;20508;-76
2021/06/23 03:26:36;;;;;;;5.00;3.60;;;18.10;97.80;;;;;;5072627;28;20256;-75
2021/06/23 03:29:23;;;;;;;12.23;4.63;;;18.00;97.90;;;;;;5066919;28;20180;-75
2021/06/23 03:31:48;;;;;;;4.83;3.57;;;18.00;98.20;;;;;;5071134;28;20421;-75
2021/06/23 03:34:15;;;;;;;6.37;3.10;;;18.00;98.10;;;;;;5074145;28;20443;-76
2021/06/23 03:36:41;;;;;;;4.40;3.70;;;18.00;98.00;;;;;;5070754;28;20207;-74
2021/06/23 03:39:06;;;;;;;4.17;3.23;;;18.00;98.00;;;;;;5071554;28;20432;-75
2021/06/23 03:41:32;;;;;;;6.17;3.87;;;18.00;98.10;;;;;;5072493;28;20939;-75
2021/06/23 03:43:58;;;;;;;7.57;4.10;;;17.90;97.80;;;;;;5072734;28;20211;-76
2021/06/23 03:46:24;;;;;;;5.17;4.20;;;17.90;97.90;;;;;;5072332;28;20228;-75
2021/06/23 03:48:49;;;;;;;4.90;3.50;;;17.90;98.20;;;;;;5072702;28;20245;-75
2021/06/23 03:51:15;;;;;;;4.80;3.53;;;17.90;98.40;;;;;;5071876;28;20218;-74
2021/06/23 03:53:41;;;;;;;5.70;3.93;;;18.00;98.50;;;;;;5069769;28;20194;-75
2021/06/23 03:56:07;;;;;;;6.53;4.23;;;18.10;98.40;;;;;;5072308;28;20208;-74
2021/06/23 03:58:32;;;;;;;7.00;4.03;;;18.20;98.30;;;;;;5072552;28;20191;-76
2021/06/23 04:00:58;;;;;;;8.20;3.97;;;18.20;98.30;;;;;;5072217;28;20199;-76
2021/06/23 04:03:24;;;;;;;7.37;3.90;;;18.30;98.20;;;;;;5075264;28;20677;-76
2021/06/23 04:05:50;;;;;;;7.03;3.50;;;18.40;98.10;;;;;;5092502;28;20477;-76
2021/06/23 04:08:18;;;;;;;6.27;4.00;;;18.40;97.70;;;;;;5078092;28;20242;-76
2021/06/23 04:10:43;;;;;;;4.87;4.03;;;18.50;97.60;;;;;;5071880;28;20786;-76
2021/06/23 04:13:09;;;;;;;5.80;3.93;;;18.50;97.70;;;;;;5071884;28;20426;-76
2021/06/23 04:15:35;;;;;;;7.90;3.70;;;18.60;97.60;;;;;;5072299;28;20208;-76
2021/06/23 04:18:00;;;;;;;7.47;3.87;;;18.60;97.40;;;;;;5066483;28;20654;-76
2021/06/23 04:20:26;;;;;;;7.03;3.80;;;18.70;97.40;;;;;;5070899;28;20188;-76
2021/06/23 04:22:52;;;;;;;6.13;4.03;;;18.70;97.10;;;;;;5070795;28;20195;-75
2021/06/23 04:25:18;;;;;;;4.87;3.53;;;18.70;97.00;;;;;;5069156;28;20213;-75
2021/06/23 04:27:44;;;;;;;8.67;4.70;;;18.70;97.00;;;;;;5071269;28;20191;-75
2021/06/23 04:30:12;;;;;;;9.10;4.80;;;18.70;96.90;;;;;;5067848;28;20185;-75
2021/06/23 04:32:39;;;;;;;9.17;5.13;;;18.70;96.50;;;;;;5067764;28;20990;-75
2021/06/23 04:35:06;;;;;;;7.63;4.57;;;18.80;96.40;;;;;;5071663;28;20465;-76
2021/06/23 04:37:34;;;;;;;5.93;4.23;;;18.70;96.30;;;;;;5071417;28;20426;-77
2021/06/23 04:40:00;;;;;;;6.20;4.10;;;18.80;96.00;;;;;;5070768;28;20431;-76
2021/06/23 04:42:26;;;;;;;6.53;4.37;;;18.70;96.10;;;;;;5073571;28;20427;-76
2021/06/23 04:44:52;;;;;;;4.70;3.93;;;18.90;96.10;;;;;;5076032;28;20470;-75
2021/06/23 04:47:19;;;;;;;8.30;4.37;;;19.00;95.90;;;;;;5078334;28;20437;-74
2021/06/23 04:49:45;;;;;;;6.00;3.90;;;19.00;95.70;;;;;;5072211;28;20178;-76
2021/06/23 04:52:10;;;;;;;5.93;4.20;;;19.10;95.40;;;;;;5074078;28;20429;-75
2021/06/23 04:54:36;;;;;;;9.73;4.73;;;19.10;95.10;;;;;;5082444;28;20440;-76
2021/06/23 04:57:02;;;;;;;5.40;4.23;;;19.20;94.90;;;;;;5073700;28;20201;-75
2021/06/23 04:59:29;;;;;;;5.87;4.53;;;19.20;94.40;;;;;;5068917;28;20681;-75
2021/06/23 05:01:55;;;;;;;7.03;4.77;;;19.20;94.20;;;;;;5060077;28;20431;-75
2021/06/23 05:04:21;;;;;;;8.47;4.17;;;19.10;94.40;;;;;;5063857;28;20537;-75
2021/06/23 05:06:47;;;;;;;7.50;4.67;;;18.80;95.10;;;;;;5062191;28;20454;-76
2021/06/23 05:09:12;;;;;;;6.07;3.27;;;18.80;95.50;;;;;;5067986;28;20204;-75
2021/06/23 05:11:40;;;;;;;5.97;4.00;;;18.70;94.30;;;;;;5068094;28;20187;-72
2021/06/23 05:14:07;;;;;;;10.57;4.03;;;18.70;94.80;;;;;;5067532;28;20591;-74
2021/06/23 05:16:35;;;;;;;6.33;3.63;;;18.80;94.70;;;;;;5070441;28;20454;-72
2021/06/23 05:19:01;;;;;;;7.30;4.37;;;18.90;94.70;;;;;;5069347;28;20439;-73
2021/06/23 05:21:27;;;;;;;4.40;3.33;;;19.00;94.10;;;;;;5069712;28;20426;-74
2021/06/23 05:23:53;;;;;;;6.13;3.13;;;19.00;93.80;;;;;;5070416;28;20471;-73
2021/06/23 05:26:19;;;;;;;4.47;2.83;;;19.00;93.10;;;;;;5069437;28;20461;-75
2021/06/23 05:28:45;;;;;;;7.03;3.60;;;19.10;92.80;;;;;;5073188;28;21284;-74
2021/06/23 05:31:11;;;;;;;5.73;3.83;;;19.20;92.80;;;;;;5065088;28;20256;-74
2021/06/23 05:33:37;;;;;;;5.40;3.30;;;19.20;92.80;;;;;;5066578;28;20288;-74
2021/06/23 05:36:03;;;;;;;4.00;3.07;;;19.20;91.80;;;;;;5070219;28;20673;-74
2021/06/23 05:38:28;;;;;;;6.13;3.20;;;19.30;92.10;;;;;;5070445;28;20184;-75
2021/06/23 05:40:54;;;;;;;7.63;3.10;;;19.50;92.10;;;;;;5062363;28;20515;-74
2021/06/23 05:43:20;;;;;;;5.60;3.07;;;19.60;92.10;;;;;;5067518;28;20185;-74
2021/06/23 05:45:45;;;;;;;3.73;3.20;;;19.70;92.30;;;;;;5074237;28;20212;-77
2021/06/23 05:48:11;;;;;;;5.63;3.10;;;19.80;92.20;;;;;;5072430;28;20259;-78
2021/06/23 05:50:39;;;;;;;5.87;3.00;;;20.00;91.70;;;;;;5073478;28;20188;-78
2021/06/23 05:53:05;;;;;;;4.67;3.30;;;20.10;91.20;;;;;;5075858;28;20195;-79
2021/06/23 05:55:31;;;;;;;3.70;2.73;;;20.30;90.70;;;;;;5072696;28;20446;-78
2021/06/23 05:57:57;;;;;;;4.50;2.73;;;20.50;89.60;;;;;;5067933;28;20458;-81
2021/06/23 06:00:25;;;;;;;4.33;2.80;;;20.50;88.60;;;;;;5070739;28;20418;-79
2021/06/23 06:02:51;;;;;;;3.67;2.70;;;20.60;88.40;;;;;;5070280;28;20437;-79
2021/06/23 06:05:17;;;;;;;3.50;2.40;;;20.70;87.80;;;;;;5074546;28;20466;-78
2021/06/23 06:07:43;;;;;;;4.20;2.60;;;20.80;87.80;;;;;;5076167;28;20425;-77
2021/06/23 06:10:10;;;;;;;5.17;2.60;;;20.90;86.50;;;;;;5075351;28;20422;-78
2021/06/23 06:12:36;;;;;;;6.43;2.30;;;20.90;86.00;;;;;;5074258;28;20413;-77
2021/06/23 06:15:04;;;;;;;5.13;2.23;;;21.00;86.50;;;;;;5075502;28;20806;-78
2021/06/23 06:17:30;;;;;;;4.33;1.87;;;21.10;85.90;;;;;;5074825;28;20430;-78
2021/06/23 06:19:55;;;;;;;3.13;2.23;;;21.10;85.50;;;;;;5074918;28;20429;-78
2021/06/23 06:22:21;;;;;;;4.17;2.30;;;21.10;86.20;;;;;;5074004;28;20932;-78
2021/06/23 06:24:47;;;;;;;3.37;2.60;;;21.20;86.20;;;;;;5073627;28;20207;-78
2021/06/23 06:27:13;;;;;;;2.33;1.93;;;21.20;86.30;;;;;;5074515;28;20196;-77
2021/06/23 06:29:38;;;;;;;3.03;2.60;;;21.30;85.50;;;;;;5073975;28;20205;-77
2021/06/23 06:32:05;;;;;;;3.27;2.30;;;21.30;86.00;;;;;;5072699;28;20947;-79
2021/06/23 06:34:30;;;;;;;2.70;2.30;;;21.10;83.00;;;;;;5072348;28;20243;-76
2021/06/23 06:36:57;;;;;;;3.50;2.20;;;20.90;84.00;;;;;;5051700;28;20474;-77
2021/06/23 06:39:23;;;;;;;5.90;2.97;;;20.90;84.30;;;;;;5053793;28;20411;-79
2021/06/23 06:41:49;;;;;;;4.40;2.60;;;20.90;84.60;;;;;;5052977;28;20181;-78
2021/06/23 06:44:15;;;;;;;3.60;2.50;;;20.90;85.60;;;;;;5053354;28;20204;-78
2021/06/23 06:46:42;;;;;;;5.00;2.60;;;20.80;84.90;;;;;;5053426;28;20201;-77
2021/06/23 06:49:08;;;;;;;2.80;2.20;;;20.80;85.90;;;;;;5068709;28;20431;-76
2021/06/23 06:51:34;;;;;;;4.80;2.43;;;20.90;86.30;;;;;;5052225;28;20915;-77
2021/06/23 06:54:00;;;;;;;3.63;2.43;;;21.00;86.80;;;;;;5052186;28;20518;-76
2021/06/23 06:56:25;;;;;;;5.97;3.60;;;21.10;86.80;;;;;;5051391;28;20296;-80
2021/06/23 06:58:51;;;;;;;4.97;2.60;;;21.20;86.60;;;;;;5054103;28;20195;-79
2021/06/23 07:01:17;;;;;;;4.13;2.37;;;21.30;86.30;;;;;;5052876;28;20190;-79
2021/06/23 07:03:43;;;;;;;6.13;2.80;;;21.40;85.50;;;;;;5054088;28;20212;-75
2021/06/23 07:06:09;;;;;;;4.17;2.67;;;21.50;85.70;;;;;;5051239;28;20459;-79
2021/06/23 07:08:35;;;;;;;5.70;2.97;;;21.60;85.00;;;;;;5053331;28;20181;-77
2021/06/23 07:11:00;;;;;;;4.43;2.53;;;21.60;85.30;;;;;;5052139;28;20924;-78
2021/06/23 07:13:26;;;;;;;5.07;2.20;;;21.70;85.50;;;;;;5054365;28;20187;-78
2021/06/23 07:15:52;;;;;;;4.80;2.80;;;21.80;85.00;;;;;;5047958;28;20214;-78
2021/06/23 07:18:18;;;;;;;4.50;2.30;;;22.00;84.30;;;;;;5053965;28;20190;-77
2021/06/23 07:20:43;;;;;;;4.73;2.60;;;22.10;84.00;;;;;;5050632;28;20257;-78
2021/06/23 07:23:09;;;;;;;4.30;2.50;;;22.20;82.70;;;;;;5053837;28;20182;-78
2021/06/23 07:25:35;;;;;;;4.40;2.40;;;22.30;81.50;;;;;;5054678;28;20242;-77
2021/06/23 07:28:01;;;;;;;4.43;2.80;;;22.40;81.10;;;;;;5054131;28;20191;-78
2021/06/23 07:30:28;;;;;;;2.60;2.30;;;22.40;81.20;;;;;;5054276;28;20231;-78
2021/06/23 07:32:57;;;;;;;4.20;3.07;;;22.60;80.60;;;;;;5058733;28;20687;-78
2021/06/23 07:38:09;;;;;;;3.87;3.27;;;22.80;79.20;;;;;;5055613;28;20433;-79
2021/06/23 07:40:55;;;;;;;4.00;2.93;;;22.60;78.90;;;;;;5054142;28;20420;-79
2021/06/23 07:43:21;;;;;;;5.23;3.00;;;22.60;78.70;;;;;;5054537;28;20429;-79
2021/06/23 07:45:53;;;;;;;3.07;2.80;;;22.80;78.10;;;;;;5054303;28;20453;-79
2021/06/23 07:48:26;;;;;;;6.70;3.00;;;22.80;78.00;;;;;;5053737;28;20941;-79
2021/06/23 07:51:03;;;;;;;3.60;2.73;;;22.90;78.30;;;;;;5051643;28;20442;-78
2021/06/23 07:53:35;;;;;;;3.90;2.60;;;22.90;78.00;;;;;;5053737;28;20467;-77
2021/06/23 07:56:08;;;;;;;2.97;2.70;;;23.10;77.70;;;;;;5053411;28;20449;-80
2021/06/23 08:09:36;;;;;;;4.23;3.00;;;23.10;76.10;;;;;;5053574;28;20429;-78
2021/06/23 08:14:37;;;;;;;5.00;2.83;;;23.20;75.80;;;;;;5054932;28;20863;-78
2021/06/23 08:17:03;;;;;;;4.10;3.10;;;23.40;74.80;;;;;;5053700;28;20448;-80
2021/06/23 08:19:29;;;;;;;5.20;3.13;;;23.70;73.60;;;;;;5051911;28;20437;-79
2021/06/23 08:21:55;;;;;;;6.27;3.17;;;23.80;72.30;;;;;;5052406;28;20428;-79
2021/06/23 08:24:21;;;;;;;4.10;2.60;;;24.00;71.00;;;;;;5053495;28;20470;-79
2021/06/23 08:26:47;;;;;;;5.47;2.80;;;24.10;70.50;;;;;;5052690;28;20217;-78
2021/06/23 08:29:12;;;;;;;4.23;3.07;;;24.10;70.40;;;;;;5053565;28;20420;-79
2021/06/23 08:31:38;;;;;;;3.80;2.53;;;24.20;69.90;;;;;;5053587;28;20195;-78
2021/06/23 08:34:13;;;;;;;5.17;2.93;;;24.30;70.10;;;;;;5052907;28;20210;-78
2021/06/23 08:36:49;;;;;;;3.77;2.47;;;24.50;71.00;;;;;;5069760;28;20989;-80
2021/06/23 08:39:16;;;;;;;4.60;3.00;;;24.40;71.70;;;;;;5039509;28;20481;-79
2021/06/23 08:41:43;;;;;;;4.90;2.90;;;24.50;71.30;;;;;;5065505;28;20510;-80
2021/06/23 08:44:10;;;;;;;6.90;3.30;;;24.50;70.50;;;;;;5063966;28;20472;-79
2021/06/23 08:46:40;;;;;;;4.27;3.10;;;24.40;70.80;;;;;;5063089;28;20457;-78
2021/06/23 08:49:08;;;;;;;3.80;3.27;;;24.00;71.30;;;;;;5064353;28;20496;-78
2021/06/23 08:51:35;;;;;;;3.50;3.10;;;23.80;71.60;;;;;;5079676;28;20520;-78
2021/06/23 08:54:02;;;;;;;5.90;3.63;;;23.80;72.00;;;;;;5064621;28;20422;-78
2021/06/23 08:56:28;;;;;;;4.47;3.10;;;23.90;71.40;;;;;;5068561;28;20453;-77
2021/06/23 08:58:54;;;;;;;5.20;3.37;;;24.00;70.80;;;;;;5066842;28;20440;-79
2021/06/23 09:01:20;;;;;;;3.30;2.93;;;24.00;71.00;;;;;;5065490;28;20503;-77
2021/06/23 09:04:13;;;;;;;3.50;2.97;;;24.10;70.50;;;;;;5051924;28;20508;-77
2021/06/23 09:06:44;;;;;;;4.50;3.40;;;24.00;70.40;;;;;;5041891;28;20526;-78
2021/06/23 09:09:16;;;;;;;5.70;3.40;;;24.10;69.70;;;;;;5052072;28;20789;-78
2021/06/23 09:11:42;;;;;;;5.03;3.03;;;24.20;68.50;;;;;;5053297;28;20420;-78
2021/06/23 09:14:13;;;;;;;3.17;2.60;;;24.30;67.90;;;;;;5062631;28;20412;-78
2021/06/23 09:17:17;;;;;;;3.23;2.63;;;24.40;67.50;;;;;;5074192;28;20437;-79
2021/06/23 09:19:52;;;;;;;4.83;2.93;;;24.60;67.30;;;;;;5075687;28;20409;-78
2021/06/23 09:22:47;;;;;;;2.33;2.13;;;24.90;65.70;;;;;;5077513;28;20479;-80
2021/06/23 09:25:13;;;;;;;4.20;2.80;;;25.00;64.50;;;;;;5029576;28;20494;-79
2021/06/23 09:27:50;;;;;;;3.27;2.53;;;24.80;64.40;;;;;;5027442;28;20436;-78
2021/06/23 09:30:39;;;;;;;2.77;2.33;;;24.90;65.10;;;;;;5026823;28;20192;-79
2021/06/23 09:33:11;;;;;;;3.23;2.60;;;25.10;62.30;;;;;;4995610;28;20441;-77
2021/06/23 09:35:39;;;;;;;3.00;2.30;;;25.00;62.90;;;;;;5001681;28;20463;-79
2021/06/23 09:38:05;;;;;;;4.67;2.37;;;24.70;63.80;;;;;;5012531;28;20930;-78
2021/06/23 09:40:40;;;;;;;2.97;2.40;;;24.70;63.50;;;;;;5018680;28;20435;-79
2021/06/23 09:43:07;;;;;;;4.80;2.30;;;24.80;62.30;;;;;;5012048;28;20874;-79
2021/06/23 09:45:33;;;;;;;2.70;2.20;;;24.90;62.60;;;;;;5015674;28;20531;-79
2021/06/23 09:48:06;;;;;;;3.73;2.30;;;25.10;60.90;;;;;;5019839;28;20423;-78
2021/06/23 09:50:34;;;;;;;2.20;2.07;;;25.00;61.30;;;;;;5017143;28;20567;-79
2021/06/23 09:53:09;;;;;;;2.80;2.50;;;25.00;62.50;;;;;;5016410;28;20413;-79
2021/06/23 09:55:48;;;;;;;4.53;2.40;;;25.10;61.20;;;;;;5010633;28;20452;-79
2021/06/23 09:58:25;;;;;;;3.17;2.17;;;25.20;62.60;;;;;;5013739;28;20474;-79
2021/06/23 10:01:04;;;;;;;3.07;2.10;;;25.40;62.90;;;;;;5016706;28;20425;-77
2021/06/23 10:03:51;;;;;;;2.50;1.70;;;25.60;60.40;;;;;;5052163;28;20429;-76
2021/06/23 10:06:31;;;;;;;2.10;1.73;;;25.70;58.40;;;;;;5051710;28;20437;-78
2021/06/23 10:09:15;;;;;;;3.53;2.80;;;25.40;57.20;;;;;;5046892;28;20414;-76
2021/06/23 10:11:42;;;;;;;1.87;1.77;;;25.20;58.50;;;;;;5051270;28;20435;-76
2021/06/23 10:14:10;;;;;;;3.50;2.03;;;25.10;59.20;;;;;;5049130;28;20424;-77
2021/06/23 10:16:36;;;;;;;2.60;2.27;;;25.60;59.30;;;;;;5051113;28;20925;-77
2021/06/23 10:19:08;;;;;;;5.03;3.20;;;26.00;58.40;;;;;;5051732;28;20577;-76
2021/06/23 10:21:36;;;;;;;2.07;1.70;;;26.50;56.90;;;;;;5052535;28;20934;-76
2021/06/23 10:24:03;;;;;;;4.07;2.33;;;26.70;55.60;;;;;;5053458;28;20566;-76
2021/06/23 10:26:30;;;;;;;2.10;1.43;;;26.80;54.60;;;;;;5049478;28;20492;-77
2021/06/23 10:28:56;;;;;;;3.20;1.97;;;27.10;53.30;;;;;;5045742;28;20442;-77
2021/06/23 10:31:25;;;;;;;4.93;1.60;;;27.20;53.40;;;;;;5052836;28;20418;-77
2021/06/23 10:33:51;;;;;;;3.13;1.40;;;27.70;49.70;;;;;;5053460;28;20453;-78
2021/06/23 10:36:17;;;;;;;1.87;1.50;;;28.00;47.80;;;;;;5053185;28;20533;-77
2021/06/23 10:38:44;;;;;;;2.43;1.70;;;28.10;47.80;;;;;;5051585;28;20967;-77
2021/06/23 10:41:11;;;;;;;2.67;1.90;;;28.00;47.10;;;;;;5052711;28;20432;-78
2021/06/23 10:43:38;;;;;;;3.60;3.00;;;27.30;49.10;;;;;;5057258;28;20432;-79
2021/06/23 10:46:04;;;;;;;3.20;2.00;;;27.60;49.70;;;;;;5061014;28;20499;-77
2021/06/23 10:48:49;;;;;;;5.40;4.30;;;28.20;47.50;;;;;;5051952;28;20427;-78
2021/06/23 10:51:25;;;;;;;1.33;1.00;;;28.80;46.60;;;;;;5056029;28;20188;-80
2021/06/23 10:53:51;;;;;;;1.17;1.10;;;28.60;41.90;;;;;;5052051;28;20426;-78
2021/06/23 10:56:41;;;;;;;2.20;1.47;;;28.30;44.90;;;;;;5047864;28;20449;-76
2021/06/23 10:59:35;;;;;;;1.60;1.37;;;28.70;45.30;;;;;;5046518;28;20206;-76
2021/06/23 11:02:12;;;;;;;1.57;1.17;;;28.50;45.50;;;;;;5044936;28;20751;-78
2021/06/23 11:05:05;;;;;;;1.80;1.40;;;28.50;45.90;;;;;;5051547;28;20461;-77
2021/06/23 11:07:40;;;;;;;2.33;1.50;;;28.70;44.50;;;;;;5047478;28;20482;-78
2021/06/23 11:10:18;;;;;;;1.93;1.43;;;28.70;44.20;;;;;;5053295;28;20525;-78
2021/06/23 11:12:44;;;;;;;2.37;1.30;;;28.10;45.90;;;;;;5044255;28;20563;-76
2021/06/23 11:15:20;;;;;;;1.63;1.37;;;28.30;45.40;;;;;;5052747;28;20411;-79
2021/06/23 11:17:48;;;;;;;4.17;1.80;;;28.50;46.30;;;;;;5052450;28;20943;-78
2021/06/23 11:20:19;;;;;;;2.03;1.50;;;28.90;46.20;;;;;;5052655;28;20423;-77
2021/06/23 11:22:55;;;;;;;4.00;1.93;;;28.60;47.70;;;;;;5047864;28;21318;-78
2021/06/23 11:25:33;;;;;;;2.53;1.67;;;28.20;49.10;;;;;;5053126;28;20465;-76
2021/06/23 11:28:08;;;;;;;2.00;1.70;;;27.50;50.30;;;;;;5053145;28;20927;-77
2021/06/23 11:30:55;;;;;;;1.83;1.80;;;27.40;52.00;;;;;;5047162;28;20429;-77
2021/06/23 11:33:27;;;;;;;3.20;2.33;;;27.90;50.20;;;;;;5044031;28;20454;-77
2021/06/23 11:35:53;;;;;;;2.50;2.20;;;27.80;50.50;;;;;;5046532;28;20529;-78
2021/06/23 11:38:19;;;;;;;6.27;1.57;;;27.80;50.90;;;;;;5051692;28;20520;-77
2021/06/23 11:40:45;;;;;;;2.10;1.77;;;27.30;52.80;;;;;;5051161;28;20497;-77
2021/06/23 11:43:10;;;;;;;2.67;1.77;;;27.10;53.60;;;;;;5049692;28;20267;-78
2021/06/23 11:45:36;;;;;;;2.80;1.27;;;27.50;52.00;;;;;;5051988;28;21022;-77
2021/06/23 11:48:02;;;;;;;1.73;1.60;;;27.40;52.10;;;;;;5051818;28;20183;-79
2021/06/23 11:50:28;;;;;;;2.60;1.40;;;28.00;50.60;;;;;;5052451;28;20177;-77
2021/06/23 11:52:53;;;;;;;2.47;1.73;;;28.20;49.00;;;;;;5050418;28;20889;-79
2021/06/23 11:55:26;;;;;;;3.10;2.00;;;28.00;49.50;;;;;;5051869;28;20196;-77
2021/06/23 11:58:00;;;;;;;2.10;1.53;;;28.20;48.50;;;;;;5052002;28;20184;-76
2021/06/23 12:00:30;;;;;;;1.70;1.60;;;28.20;49.00;;;;;;5049514;28;20419;-77
2021/06/23 12:02:58;;;;;;;3.23;1.50;;;28.20;49.10;;;;;;5046153;28;20438;-79
2021/06/23 12:05:25;;;;;;;1.90;1.53;;;28.60;48.70;;;;;;5051984;28;20524;-77
2021/06/23 12:07:52;;;;;;;1.80;1.43;;;28.60;48.50;;;;;;5044580;28;20430;-77
2021/06/23 12:10:19;;;;;;;1.90;1.63;;;28.40;48.60;;;;;;5080876;28;20504;-77
2021/06/23 12:12:47;;;;;;;2.87;1.80;;;28.00;49.40;;;;;;5052170;28;20426;-76
2021/06/23 12:15:15;;;;;;;2.27;1.50;;;27.90;49.70;;;;;;5051455;28;20426;-77
2021/06/23 12:17:41;;;;;;;2.63;1.40;;;28.00;49.50;;;;;;5047297;28;20459;-77
2021/06/23 12:20:09;;;;;;;2.20;1.40;;;27.90;49.70;;;;;;5051597;28;20469;-77
2021/06/23 12:22:37;;;;;;;1.80;1.60;;;27.30;49.70;;;;;;5048944;28;20845;-77
2021/06/23 12:25:05;;;;;;;4.90;2.00;;;26.90;50.90;;;;;;5051970;28;20976;-77
2021/06/23 12:27:30;;;;;;;2.37;1.40;;;27.30;50.10;;;;;;5043077;28;20458;-77
2021/06/23 12:29:56;;;;;;;3.10;1.40;;;27.60;49.90;;;;;;5051277;28;20457;-76
2021/06/23 12:32:22;;;;;;;1.73;1.20;;;28.10;47.90;;;;;;5040362;28;20231;-78
2021/06/23 12:34:48;;;;;;;1.17;1.00;;;28.60;46.60;;;;;;5050142;28;20204;-78
2021/06/23 12:37:14;;;;;;;2.73;1.90;;;28.80;45.80;;;;;;5052405;28;20709;-78
2021/06/23 12:39:40;;;;;;;1.50;1.10;;;29.30;44.90;;;;;;5053131;28;20438;-78
2021/06/23 12:42:06;;;;;;;4.03;1.47;;;29.60;43.70;;;;;;5047537;28;20786;-77
2021/06/23 12:44:32;;;;;;;2.30;1.70;;;29.20;44.50;;;;;;5068981;28;20224;-78
2021/06/23 12:46:58;;;;;;;2.50;1.40;;;28.80;44.60;;;;;;5065780;28;20458;-77
2021/06/23 12:49:24;;;;;;;1.30;1.17;;;28.80;44.10;;;;;;5063121;28;20195;-77
2021/06/23 12:51:51;;;;;;;3.60;2.60;;;29.40;42.00;;;;;;5054758;28;20427;-77
2021/06/23 12:54:17;;;;;;;2.13;1.70;;;29.40;41.60;;;;;;5071353;28;20187;-76
2021/06/23 12:56:43;;;;;;;1.10;1.10;;;29.80;41.10;;;;;;5070969;28;20469;-77
2021/06/23 12:59:09;;;;;;;1.83;1.30;;;30.10;39.90;;;;;;5064484;28;21005;-78
2021/06/23 13:01:35;;;;;;;1.00;1.00;;;30.40;39.00;;;;;;5056703;28;20531;-78
2021/06/23 13:04:02;;;;;;;1.40;1.30;;;30.10;39.10;;;;;;5056276;28;20298;-78
2021/06/23 13:06:27;;;;;;;3.87;1.70;;;29.80;39.50;;;;;;5056376;28;20202;-78
2021/06/23 13:08:53;;;;;;;1.27;1.10;;;28.80;42.30;;;;;;5056461;28;20416;-78